Terminal Aerodrome Forecast
Issued by NWS

Home | Current Version | Previous Version | Text Only | Print | Product List | Glossary On
Versions: 1 2 3 4 5 6 7 8 9 10 11 12 13 14 15 16 17 18 19 20 21 22 23
000
FTUS43 KGRR 231000 AAA
TAFAZO
TAF AMD
KAZO 231038Z 2311/2406 00000KT 3/4SM BR BKN002
      TEMPO 2311/2312 1/4SM FG VV002
     FM231200 07003KT 1SM BR BKN015
     FM231300 09005KT 5SM BR BKN035
     FM231600 09007KT 6SM HZ BKN035=

USA.gov is the U.S. government's official web portal to all federal, state and local government web resources and services.